Time,TemperatureF,DewpointF,PressureIn,WindDirection,WindDirectionDegrees,WindSpeedMPH,WindSpeedGustMPH,Humidity,HourlyPrecipIn,Conditions,Clouds,dailyrainin,SoftwareType,DateUTC
2013-02-09 00:00:00,55.8,52.9,30.10,WSW,250,0.0,4.0,90,0.00,,,0.00,Wunderground v.1.15,2013-02-09 05:00:00,
2013-02-09 00:10:00,55.7,52.8,30.10,SSW,210,0.0,4.0,90,0.00,,,0.00,Wunderground v.1.15,2013-02-09 05:10:00,
2013-02-09 00:20:00,55.5,52.6,30.10,SW,219,0.0,4.0,90,0.00,,,0.00,Wunderground v.1.15,2013-02-09 05:20:00,
2013-02-09 00:30:00,55.4,52.5,30.10,SSW,194,0.0,4.0,90,0.00,,,0.00,Wunderground v.1.15,2013-02-09 05:30:00,
2013-02-09 00:40:00,55.2,52.6,30.10,NNW,344,0.0,4.0,91,0.00,,,0.00,Wunderground v.1.15,2013-02-09 05:40:00,
2013-02-09 00:50:00,55.0,52.4,30.10,NW,323,0.0,4.0,91,0.00,,,0.00,Wunderground v.1.15,2013-02-09 05:50:00,
2013-02-09 01:00:00,54.9,52.3,30.10,WSW,240,0.0,4.0,91,0.00,,,0.00,Wunderground v.1.15,2013-02-09 06:00:00,
2013-02-09 01:10:00,54.8,52.5,30.10,WSW,242,0.0,4.0,92,0.00,,,0.00,Wunderground v.1.15,2013-02-09 06:10:00,
2013-02-09 01:20:00,54.8,52.5,30.10,SSW,211,0.0,4.0,92,0.00,,,0.00,Wunderground v.1.15,2013-02-09 06:20:00,
2013-02-09 01:30:00,54.6,52.0,30.10,SW,219,0.0,4.0,91,0.00,,,0.00,Wunderground v.1.15,2013-02-09 06:30:00,
2013-02-09 01:40:00,54.5,52.2,30.10,East,94,0.0,4.0,92,0.00,,,0.00,Wunderground v.1.15,2013-02-09 06:40:00,
2013-02-09 01:50:00,54.3,52.0,30.10,SW,215,0.0,4.0,92,0.00,,,0.00,Wunderground v.1.15,2013-02-09 06:50:00,
2013-02-09 02:00:00,54.2,51.9,30.11,ENE,57,0.0,4.0,92,0.00,,,0.00,Wunderground v.1.15,2013-02-09 07:00:00,
2013-02-09 02:10:00,54.1,51.8,30.11,SSW,213,0.0,4.0,92,0.00,,,0.00,Wunderground v.1.15,2013-02-09 07:10:00,
2013-02-09 02:20:00,54.0,51.7,30.11,NE,41,0.0,4.0,92,0.00,,,0.00,Wunderground v.1.15,2013-02-09 07:20:00,
2013-02-09 02:30:00,53.8,51.5,30.11,ENE,57,0.0,4.0,92,0.00,,,0.00,Wunderground v.1.15,2013-02-09 07:30:00,
2013-02-09 02:40:00,53.6,51.3,30.11,NE,56,0.0,4.0,92,0.00,,,0.00,Wunderground v.1.15,2013-02-09 07:40:00,
2013-02-09 02:50:00,53.4,51.1,30.11,NE,56,0.0,4.0,92,0.00,,,0.00,Wunderground v.1.15,2013-02-09 07:50:00,
2013-02-09 03:00:00,53.2,50.9,30.11,East,82,0.0,4.0,92,0.00,,,0.00,Wunderground v.1.15,2013-02-09 08:00:00,
2013-02-09 03:10:00,53.0,50.7,30.11,WNW,292,0.0,4.0,92,0.00,,,0.00,Wunderground v.1.15,2013-02-09 08:10:00,
2013-02-09 03:20:00,52.9,50.6,30.12,ENE,57,0.0,4.0,92,0.00,,,0.00,Wunderground v.1.15,2013-02-09 08:20:00,
2013-02-09 03:30:00,52.7,50.4,30.12,NE,50,0.0,4.0,92,0.00,,,0.00,Wunderground v.1.15,2013-02-09 08:30:00,
2013-02-09 03:40:00,52.4,50.1,30.12,NNW,329,0.0,4.0,92,0.00,,,0.00,Wunderground v.1.15,2013-02-09 08:40:00,
2013-02-09 03:50:00,52.3,50.0,30.12,NE,55,0.0,4.0,92,0.00,,,0.00,Wunderground v.1.15,2013-02-09 08:50:00,
2013-02-09 04:00:00,52.2,49.9,30.12,NE,55,0.0,4.0,92,0.00,,,0.00,Wunderground v.1.15,2013-02-09 09:00:00,
2013-02-09 04:10:00,52.0,49.7,30.12,NE,44,0.0,4.0,92,0.00,,,0.00,Wunderground v.1.15,2013-02-09 09:10:00,
2013-02-09 04:20:00,51.8,49.5,30.13,NE,51,0.0,4.0,92,0.00,,,0.00,Wunderground v.1.15,2013-02-09 09:20:00,
2013-02-09 04:30:00,51.6,49.4,30.13,NE,51,0.0,4.0,92,0.00,,,0.00,Wunderground v.1.15,2013-02-09 09:30:00,
2013-02-09 04:40:00,51.4,49.2,30.14,NE,51,0.0,4.0,92,0.00,,,0.00,Wunderground v.1.15,2013-02-09 09:40:00,
2013-02-09 04:50:00,51.3,48.8,30.14,NE,50,0.0,4.0,91,0.00,,,0.00,Wunderground v.1.15,2013-02-09 09:50:00,
2013-02-09 05:00:00,51.2,48.7,30.14,ENE,64,0.0,4.0,91,0.00,,,0.00,Wunderground v.1.15,2013-02-09 10:00:00,
2013-02-09 05:10:00,51.0,48.2,30.15,NE,38,0.0,4.0,90,0.00,,,0.00,Wunderground v.1.15,2013-02-09 10:10:00,
2013-02-09 05:20:00,50.9,48.1,30.15,NE,54,0.0,4.0,90,0.00,,,0.00,Wunderground v.1.15,2013-02-09 10:20:00,
2013-02-09 05:30:00,50.7,47.9,30.15,ENE,74,0.0,4.0,90,0.00,,,0.00,Wunderground v.1.15,2013-02-09 10:30:00,
2013-02-09 05:40:00,50.6,47.8,30.16,East,101,0.0,4.0,90,0.00,,,0.00,Wunderground v.1.15,2013-02-09 10:40:00,
2013-02-09 05:50:00,50.5,47.4,30.17,NE,51,0.0,4.0,89,0.00,,,0.00,Wunderground v.1.15,2013-02-09 10:50:00,
2013-02-09 06:00:00,50.3,47.2,30.18,NE,51,0.0,4.0,89,0.00,,,0.00,Wunderground v.1.15,2013-02-09 11:00:00,
2013-02-09 06:10:00,50.0,46.9,30.18,South,185,0.0,4.0,89,0.00,,,0.00,Wunderground v.1.15,2013-02-09 11:10:00,
2013-02-09 06:20:00,49.8,46.4,30.18,North,5,0.0,4.0,88,0.00,,,0.00,Wunderground v.1.15,2013-02-09 11:20:00,
2013-02-09 06:30:00,49.7,46.0,30.19,ENE,61,0.0,4.0,87,0.00,,,0.00,Wunderground v.1.15,2013-02-09 11:30:00,
2013-02-09 06:40:00,49.6,45.9,30.18,NE,55,0.0,4.0,87,0.00,,,0.00,Wunderground v.1.15,2013-02-09 11:40:00,
2013-02-09 06:50:00,49.4,45.7,30.19,NNE,24,0.0,4.0,87,0.00,,,0.00,Wunderground v.1.15,2013-02-09 11:50:00,
2013-02-09 07:00:00,49.1,45.7,30.19,NE,51,0.0,4.0,88,0.00,,,0.00,Wunderground v.1.15,2013-02-09 12:00:00,
2013-02-09 07:10:00,48.7,45.3,30.19,NE,34,0.0,4.0,88,0.00,,,0.00,Wunderground v.1.15,2013-02-09 12:10:00,
2013-02-09 07:20:00,48.5,45.4,30.19,NE,53,0.0,4.0,89,0.00,,,0.00,Wunderground v.1.15,2013-02-09 12:20:00,
2013-02-09 07:30:00,48.2,45.1,30.19,NNE,16,0.0,4.0,89,0.00,,,0.00,Wunderground v.1.15,2013-02-09 12:30:00,
2013-02-09 07:40:00,48.2,45.4,30.20,NE,56,0.0,4.0,90,0.00,,,0.00,Wunderground v.1.15,2013-02-09 12:40:00,
2013-02-09 07:50:00,48.2,45.4,30.21,NE,38,0.0,4.0,90,0.00,,,0.00,Wunderground v.1.15,2013-02-09 12:50:00,
2013-02-09 08:00:00,48.4,45.6,30.21,NE,44,0.0,4.0,90,0.00,,,0.00,Wunderground v.1.15,2013-02-09 13:00:00,
2013-02-09 08:10:00,48.8,46.0,30.21,NE,47,0.0,4.0,90,0.00,,,0.00,Wunderground v.1.15,2013-02-09 13:10:00,
2013-02-09 08:20:00,49.4,46.6,30.21,NW,323,0.0,4.0,90,0.00,,,0.00,Wunderground v.1.15,2013-02-09 13:20:00,
2013-02-09 08:30:00,50.1,47.0,30.21,NE,53,0.0,4.0,89,0.00,,,0.00,Wunderground v.1.15,2013-02-09 13:30:00,
2013-02-09 08:40:00,50.8,47.7,30.22,NE,45,0.0,4.0,89,0.00,,,0.00,Wunderground v.1.15,2013-02-09 13:40:00,
2013-02-09 08:50:00,51.3,47.9,30.21,NE,55,0.0,4.0,88,0.00,,,0.00,Wunderground v.1.15,2013-02-09 13:50:00,
2013-02-09 09:00:00,51.8,48.4,30.22,NNE,22,0.0,4.0,88,0.00,,,0.00,Wunderground v.1.15,2013-02-09 14:00:00,
2013-02-09 09:10:00,52.5,48.7,30.22,NE,53,0.0,4.0,87,0.00,,,0.00,Wunderground v.1.15,2013-02-09 14:10:00,
2013-02-09 09:20:00,53.2,49.4,30.23,NE,40,0.0,4.0,87,0.00,,,0.00,Wunderground v.1.15,2013-02-09 14:20:00,
2013-02-09 09:30:00,54.0,50.2,30.23,East,88,0.0,4.0,87,0.00,,,0.00,Wunderground v.1.15,2013-02-09 14:30:00,
2013-02-09 09:40:00,55.0,50.9,30.24,NE,44,0.0,4.0,86,0.00,,,0.00,Wunderground v.1.15,2013-02-09 14:40:00,
2013-02-09 09:50:00,55.9,51.5,30.24,North,9,0.0,4.0,85,0.00,,,0.00,Wunderground v.1.15,2013-02-09 14:50:00,
2013-02-09 10:00:00,56.7,51.9,30.25,East,82,0.0,4.0,84,0.00,,,0.00,Wunderground v.1.15,2013-02-09 15:00:00,
2013-02-09 10:10:00,57.3,52.2,30.25,WNW,287,0.0,4.0,83,0.00,,,0.00,Wunderground v.1.15,2013-02-09 15:10:00,
2013-02-09 10:20:00,58.5,52.7,30.25,North,5,0.0,4.0,81,0.00,,,0.00,Wunderground v.1.15,2013-02-09 15:20:00,
2013-02-09 10:30:00,58.7,52.2,30.26,North,360,0.0,4.0,79,0.00,,,0.00,Wunderground v.1.15,2013-02-09 15:30:00,
2013-02-09 10:40:00,59.1,51.5,30.26,NE,53,0.0,5.0,76,0.00,,,0.00,Wunderground v.1.15,2013-02-09 15:40:00,
2013-02-09 10:50:00,60.0,51.3,30.26,ENE,69,2.0,2.0,73,0.00,,,0.00,Wunderground v.1.15,2013-02-09 15:50:00,
2013-02-09 11:00:00,60.8,52.5,30.26,North,355,0.0,4.0,74,0.00,,,0.00,Wunderground v.1.15,2013-02-09 16:00:00,
2013-02-09 11:10:00,61.5,51.6,30.26,NNE,15,1.0,1.0,70,0.00,,,0.00,Wunderground v.1.15,2013-02-09 16:10:00,
2013-02-09 11:20:00,61.8,51.9,30.26,ENE,72,1.0,1.0,70,0.00,,,0.00,Wunderground v.1.15,2013-02-09 16:20:00,
2013-02-09 11:30:00,62.4,52.1,30.26,North,11,1.0,1.0,69,0.00,,,0.00,Wunderground v.1.15,2013-02-09 16:30:00,
2013-02-09 11:40:00,62.5,51.8,30.26,North,5,1.0,1.0,68,0.00,,,0.00,Wunderground v.1.15,2013-02-09 16:40:00,
2013-02-09 11:50:00,63.1,52.0,30.25,ENE,78,1.0,1.0,67,0.00,,,0.00,Wunderground v.1.15,2013-02-09 16:50:00,
2013-02-09 12:00:00,63.6,52.8,30.25,NE,38,0.0,4.0,68,0.00,,,0.00,Wunderground v.1.15,2013-02-09 17:00:00,
2013-02-09 12:10:00,63.7,51.3,30.25,NE,44,0.0,4.0,64,0.00,,,0.00,Wunderground v.1.15,2013-02-09 17:10:00,
2013-02-09 12:20:00,64.2,52.2,30.25,NE,53,1.0,1.0,65,0.00,,,0.00,Wunderground v.1.15,2013-02-09 17:20:00,
2013-02-09 12:30:00,63.6,50.3,30.25,ENE,59,1.0,1.0,62,0.00,,,0.00,Wunderground v.1.15,2013-02-09 17:30:00,
2013-02-09 12:40:00,63.6,51.2,30.25,East,82,1.0,1.0,64,0.00,,,0.00,Wunderground v.1.15,2013-02-09 17:40:00,
2013-02-09 12:50:00,64.1,50.8,30.25,NE,40,1.0,1.0,62,0.00,,,0.00,Wunderground v.1.15,2013-02-09 17:50:00,
2013-02-09 13:00:00,63.9,50.2,30.24,NE,52,0.0,4.0,61,0.00,,,0.00,Wunderground v.1.15,2013-02-09 18:00:00,
2013-02-09 13:10:00,64.0,49.8,30.24,NE,40,1.0,1.0,60,0.00,,,0.00,Wunderground v.1.15,2013-02-09 18:10:00,
2013-02-09 13:20:00,63.7,50.0,30.23,NNE,27,1.0,1.0,61,0.00,,,0.00,Wunderground v.1.15,2013-02-09 18:20:00,
2013-02-09 13:30:00,64.2,49.6,30.24,NE,54,0.0,4.0,59,0.00,,,0.00,Wunderground v.1.15,2013-02-09 18:30:00,
2013-02-09 13:40:00,63.9,50.6,30.23,NE,39,0.0,4.0,62,0.00,,,0.00,Wunderground v.1.15,2013-02-09 18:40:00,
2013-02-09 13:50:00,63.7,50.4,30.23,ESE,104,1.0,4.0,62,0.00,,,0.00,Wunderground v.1.15,2013-02-09 18:50:00,
2013-02-09 14:00:00,63.8,51.0,30.23,WNW,302,0.0,4.0,63,0.00,,,0.00,Wunderground v.1.15,2013-02-09 19:00:00,
2013-02-09 14:10:00,63.8,50.5,30.22,NE,54,0.0,4.0,62,0.00,,,0.00,Wunderground v.1.15,2013-02-09 19:10:00,
2013-02-09 14:20:00,63.4,50.6,30.22,NE,42,0.0,4.0,63,0.00,,,0.00,Wunderground v.1.15,2013-02-09 19:20:00,
2013-02-09 14:30:00,63.4,50.6,30.22,ENE,76,1.0,1.0,63,0.00,,,0.00,Wunderground v.1.15,2013-02-09 19:30:00,
2013-02-09 14:40:00,63.7,50.4,30.22,NNE,20,1.0,4.0,62,0.00,,,0.00,Wunderground v.1.15,2013-02-09 19:40:00,
2013-02-09 14:50:00,63.7,49.5,30.22,ENE,61,1.0,1.0,60,0.00,,,0.00,Wunderground v.1.15,2013-02-09 19:50:00,
2013-02-09 15:00:00,63.3,49.2,30.22,NNE,21,1.0,1.0,60,0.00,,,0.00,Wunderground v.1.15,2013-02-09 20:00:00,
2013-02-09 15:10:00,63.4,49.3,30.22,NE,46,1.0,4.0,60,0.00,,,0.00,Wunderground v.1.15,2013-02-09 20:10:00,
2013-02-09 15:20:00,63.1,49.0,30.22,NE,55,0.0,4.0,60,0.00,,,0.00,Wunderground v.1.15,2013-02-09 20:20:00,
2013-02-09 15:30:00,63.2,48.2,30.22,ENE,65,1.0,1.0,58,0.00,,,0.00,Wunderground v.1.15,2013-02-09 20:30:00,
2013-02-09 15:40:00,63.4,47.9,30.23,NE,34,0.0,4.0,57,0.00,,,0.00,Wunderground v.1.15,2013-02-09 20:40:00,
2013-02-09 15:50:00,62.5,46.6,30.23,North,360,0.0,4.0,56,0.00,,,0.00,Wunderground v.1.15,2013-02-09 20:50:00,
2013-02-09 16:00:00,61.9,46.0,30.23,North,10,1.0,1.0,56,0.00,,,0.00,Wunderground v.1.15,2013-02-09 21:00:00,
2013-02-09 16:10:00,62.1,45.7,30.23,NE,51,1.0,1.0,55,0.00,,,0.00,Wunderground v.1.15,2013-02-09 21:10:00,
2013-02-09 16:20:00,62.3,45.9,30.23,NE,49,0.0,4.0,55,0.00,,,0.00,Wunderground v.1.15,2013-02-09 21:20:00,
2013-02-09 16:30:00,61.9,45.5,30.23,North,355,1.0,1.0,55,0.00,,,0.00,Wunderground v.1.15,2013-02-09 21:30:00,
2013-02-09 16:40:00,62.0,45.2,30.24,North,5,0.0,4.0,54,0.00,,,0.00,Wunderground v.1.15,2013-02-09 21:40:00,
2013-02-09 16:50:00,61.6,44.8,30.24,NNE,15,0.0,4.0,54,0.00,,,0.00,Wunderground v.1.15,2013-02-09 21:50:00,
2013-02-09 17:00:00,60.9,44.6,30.25,NE,34,0.0,4.0,55,0.00,,,0.00,Wunderground v.1.15,2013-02-09 22:00:00,
2013-02-09 17:10:00,60.2,43.5,30.25,NNE,33,0.0,4.0,54,0.00,,,0.00,Wunderground v.1.15,2013-02-09 22:10:00,
2013-02-09 17:20:00,59.6,43.9,30.25,NE,40,0.0,4.0,56,0.00,,,0.00,Wunderground v.1.15,2013-02-09 22:20:00,
2013-02-09 17:30:00,59.1,43.4,30.25,NE,44,0.0,4.0,56,0.00,,,0.00,Wunderground v.1.15,2013-02-09 22:30:00,
2013-02-09 17:40:00,58.6,42.9,30.25,NE,55,0.0,4.0,56,0.00,,,0.00,Wunderground v.1.15,2013-02-09 22:40:00,
2013-02-09 17:50:00,58.1,43.4,30.24,ENE,69,0.0,4.0,58,0.00,,,0.00,Wunderground v.1.15,2013-02-09 22:50:00,
2013-02-09 18:00:00,57.7,43.5,30.24,ENE,65,0.0,4.0,59,0.00,,,0.00,Wunderground v.1.15,2013-02-09 23:00:00,
2013-02-09 18:10:00,57.3,43.5,30.24,NNE,24,0.0,4.0,60,0.00,,,0.00,Wunderground v.1.15,2013-02-09 23:10:00,
2013-02-09 18:20:00,56.9,43.6,30.25,ENE,59,0.0,4.0,61,0.00,,,0.00,Wunderground v.1.15,2013-02-09 23:20:00,
2013-02-09 18:30:00,56.5,43.6,30.24,ENE,68,0.0,4.0,62,0.00,,,0.00,Wunderground v.1.15,2013-02-09 23:30:00,
2013-02-09 18:40:00,56.1,43.7,30.24,ENE,68,0.0,4.0,63,0.00,,,0.00,Wunderground v.1.15,2013-02-09 23:40:00,
2013-02-09 18:50:00,55.7,44.1,30.24,ENE,68,0.0,4.0,65,0.00,,,0.00,Wunderground v.1.15,2013-02-09 23:50:00,
2013-02-09 19:00:00,55.4,44.2,30.24,ENE,68,0.0,4.0,66,0.00,,,0.00,Wunderground v.1.15,2013-02-10 00:00:00,
2013-02-09 19:10:00,55.1,44.3,30.24,ENE,68,0.0,4.0,67,0.00,,,0.00,Wunderground v.1.15,2013-02-10 00:10:00,
2013-02-09 19:20:00,54.8,44.8,30.24,ENE,67,0.0,4.0,69,0.00,,,0.00,Wunderground v.1.15,2013-02-10 00:20:00,
2013-02-09 19:30:00,54.6,45.0,30.24,ENE,67,0.0,4.0,70,0.00,,,0.00,Wunderground v.1.15,2013-02-10 00:30:00,
2013-02-09 19:40:00,54.2,45.4,30.25,ENE,67,0.0,4.0,72,0.00,,,0.00,Wunderground v.1.15,2013-02-10 00:40:00,
2013-02-09 19:50:00,53.8,45.3,30.25,ENE,67,0.0,4.0,73,0.00,,,0.00,Wunderground v.1.15,2013-02-10 00:50:00,
2013-02-09 20:00:00,53.2,45.5,30.25,ENE,67,0.0,4.0,75,0.00,,,0.00,Wunderground v.1.15,2013-02-10 01:00:00,
2013-02-09 20:10:00,52.8,45.4,30.25,ENE,67,0.0,4.0,76,0.00,,,0.00,Wunderground v.1.15,2013-02-10 01:10:00,
2013-02-09 20:20:00,52.3,45.3,30.25,ENE,67,0.0,4.0,77,0.00,,,0.00,Wunderground v.1.15,2013-02-10 01:20:00,
2013-02-09 20:30:00,51.8,45.5,30.25,ENE,67,0.0,4.0,79,0.00,,,0.00,Wunderground v.1.15,2013-02-10 01:30:00,
2013-02-09 20:40:00,51.5,45.5,30.26,ENE,67,0.0,4.0,80,0.00,,,0.00,Wunderground v.1.15,2013-02-10 01:40:00,
2013-02-09 20:50:00,51.2,45.6,30.26,ENE,67,0.0,4.0,81,0.00,,,0.00,Wunderground v.1.15,2013-02-10 01:50:00,
2013-02-09 21:00:00,51.1,46.1,30.26,ENE,67,0.0,4.0,83,0.00,,,0.00,Wunderground v.1.15,2013-02-10 02:00:00,
2013-02-09 21:10:00,51.1,46.4,30.27,ENE,67,0.0,4.0,84,0.00,,,0.00,Wunderground v.1.15,2013-02-10 02:10:00,
2013-02-09 21:20:00,51.0,46.3,30.27,ENE,67,0.0,4.0,84,0.00,,,0.00,Wunderground v.1.15,2013-02-10 02:20:00,
2013-02-09 21:30:00,50.8,46.1,30.27,ENE,67,0.0,4.0,84,0.00,,,0.00,Wunderground v.1.15,2013-02-10 02:30:00,
2013-02-09 21:40:00,50.7,46.4,30.27,ENE,67,0.0,4.0,85,0.00,,,0.00,Wunderground v.1.15,2013-02-10 02:40:00,
2013-02-09 21:50:00,50.6,46.3,30.27,ENE,67,0.0,4.0,85,0.00,,,0.00,Wunderground v.1.15,2013-02-10 02:50:00,
2013-02-09 22:00:00,50.3,46.3,30.27,ENE,67,0.0,4.0,86,0.00,,,0.00,Wunderground v.1.15,2013-02-10 03:00:00,
2013-02-09 22:10:00,50.1,46.4,30.27,ENE,67,0.0,4.0,87,0.00,,,0.00,Wunderground v.1.15,2013-02-10 03:10:00,
2013-02-09 22:20:00,50.0,46.6,30.27,ENE,67,0.0,4.0,88,0.00,,,0.00,Wunderground v.1.15,2013-02-10 03:20:00,
2013-02-09 22:30:00,50.5,47.1,30.27,ENE,67,0.0,4.0,88,0.00,,,0.00,Wunderground v.1.15,2013-02-10 03:30:00,
2013-02-09 22:40:00,51.4,47.4,30.27,ENE,67,0.0,4.0,86,0.00,,,0.00,Wunderground v.1.15,2013-02-10 03:40:00,
2013-02-09 22:50:00,52.3,47.6,30.26,ENE,67,0.0,4.0,84,0.00,,,0.00,Wunderground v.1.15,2013-02-10 03:50:00,
2013-02-09 23:00:00,52.9,47.6,30.26,ENE,67,0.0,4.0,82,0.00,,,0.00,Wunderground v.1.15,2013-02-10 04:00:00,
2013-02-09 23:10:00,53.4,47.7,30.26,ENE,67,0.0,4.0,81,0.00,,,0.00,Wunderground v.1.15,2013-02-10 04:10:00,
2013-02-09 23:20:00,53.7,47.7,30.27,ENE,67,0.0,4.0,80,0.00,,,0.00,Wunderground v.1.15,2013-02-10 04:20:00,
2013-02-09 23:30:00,54.0,49.0,30.27,ENE,67,0.0,4.0,83,0.00,,,0.00,Wunderground v.1.15,2013-02-10 04:30:00,
2013-02-09 23:40:00,54.2,48.2,30.27,ENE,67,0.0,4.0,80,0.00,,,0.00,Wunderground v.1.15,2013-02-10 04:40:00,
2013-02-09 23:50:00,54.3,48.3,30.27,ENE,67,0.0,4.0,80,0.00,,,0.00,Wunderground v.1.15,2013-02-10 04:50:00,